createdAt,value
2018-02-05T00:08:24.087Z,3.13
2018-02-05T00:18:36.382Z,3.20
2018-02-05T00:28:44.721Z,3.07
2018-02-05T00:38:53.871Z,3.10
2018-02-05T00:49:03.381Z,2.97
2018-02-05T00:59:12.999Z,3.20
2018-02-05T01:09:22.828Z,2.93
2018-02-05T01:19:32.520Z,3.20
2018-02-05T01:29:47.861Z,2.83
2018-02-05T01:39:57.869Z,3.10
2018-02-05T01:50:10.949Z,3.10
2018-02-05T02:00:21.256Z,2.80
2018-02-05T02:10:33.941Z,3.10
2018-02-05T02:20:49.435Z,4.90
2018-02-05T02:31:02.391Z,5.60
2018-02-05T02:41:12.388Z,5.97
2018-02-05T02:51:22.833Z,5.17
2018-02-05T03:01:40.056Z,5.03
2018-02-05T03:11:49.466Z,5.10
2018-02-05T03:21:59.223Z,4.90
2018-02-05T03:32:09.815Z,4.43
2018-02-05T03:42:25.931Z,4.73
2018-02-05T03:52:37.381Z,4.47
2018-02-05T04:02:51.703Z,3.97
2018-02-05T04:13:01.074Z,4.10
2018-02-05T04:23:13.504Z,4.00
2018-02-05T04:33:33.281Z,3.97
2018-02-05T04:43:48.393Z,3.63
2018-02-05T04:54:02.166Z,3.60
2018-02-05T05:04:12.627Z,3.40
2018-02-05T05:14:24.503Z,3.50
2018-02-05T05:24:37.720Z,3.30
2018-02-05T05:34:47.480Z,3.43
2018-02-05T05:45:01.271Z,3.43
2018-02-05T05:55:13.649Z,3.60
2018-02-05T06:05:26.629Z,3.50
2018-02-05T06:15:38.905Z,3.37
2018-02-05T06:25:47.802Z,3.13
2018-02-05T06:35:59.937Z,3.17
2018-02-05T06:46:12.193Z,3.20
2018-02-05T06:56:33.337Z,3.30
2018-02-05T07:06:43.636Z,3.40
2018-02-05T07:16:58.648Z,3.30
2018-02-05T07:27:13.495Z,3.30
2018-02-05T07:37:24.323Z,3.20
2018-02-05T07:47:35.391Z,3.20
2018-02-05T07:57:51.437Z,3.10
2018-02-05T08:08:02.963Z,3.13
2018-02-05T08:18:15.268Z,2.90
2018-02-05T08:28:37.805Z,3.10
2018-02-05T08:38:58.312Z,2.93
2018-02-05T08:49:16.611Z,3.00
2018-02-05T08:59:29.966Z,3.03
2018-02-05T09:09:46.226Z,2.93
2018-02-05T11:50:07.359Z,3.43
2018-02-05T12:00:20.106Z,3.40
2018-02-05T12:10:29.934Z,3.30
2018-02-05T12:20:42.734Z,3.40
2018-02-05T12:30:53.309Z,3.90
2018-02-05T12:41:13.065Z,4.00
2018-02-05T12:51:24.578Z,3.97
2018-02-05T13:01:36.421Z,3.57
2018-02-05T13:11:49.108Z,3.83
2018-02-05T13:22:01.164Z,3.77
2018-02-05T13:32:11.585Z,4.17
2018-02-05T13:42:24.364Z,4.20
2018-02-05T13:52:38.626Z,4.10
2018-02-05T14:02:50.471Z,4.10
2018-02-05T14:13:03.543Z,4.20
2018-02-05T14:23:16.316Z,4.63
2018-02-05T14:33:31.579Z,4.77
2018-02-05T14:43:43.841Z,4.10
2018-02-05T14:53:56.872Z,4.40
2018-02-05T15:04:10.423Z,4.40
2018-02-05T15:14:23.626Z,4.80
2018-02-05T15:24:34.750Z,4.73
2018-02-05T15:34:50.005Z,4.63
2018-02-05T15:45:01.316Z,4.27
2018-02-05T16:05:20.158Z,4.40
2018-02-05T16:15:30.530Z,4.53
2018-02-05T16:25:42.699Z,4.37
2018-02-05T16:35:58.299Z,4.50
2018-02-05T16:46:07.630Z,4.10
2018-02-05T16:56:17.620Z,4.00
2018-02-05T17:06:28.244Z,4.30
2018-02-05T17:16:38.597Z,4.03
2018-02-05T17:26:47.975Z,4.10
2018-02-05T17:47:15.702Z,4.27
2018-02-05T17:57:24.200Z,4.37
2018-02-05T18:07:32.489Z,3.93
2018-02-05T18:17:41.808Z,4.13
2018-02-05T18:27:49.928Z,4.50
2018-02-05T18:38:01.302Z,4.10
2018-02-05T18:48:14.414Z,4.00
2018-02-05T18:58:23.287Z,4.07
2018-02-05T19:08:34.872Z,4.20
2018-02-05T19:18:42.556Z,4.10
2018-02-05T19:28:50.873Z,4.50
2018-02-05T19:49:44.349Z,4.30
2018-02-05T19:59:55.480Z,4.33
2018-02-05T20:10:06.877Z,4.20
2018-02-05T20:20:17.757Z,4.10
2018-02-05T20:30:28.495Z,3.97
2018-02-05T20:40:36.763Z,4.40
2018-02-05T20:50:46.703Z,4.00
2018-02-05T21:00:54.646Z,3.90
2018-02-05T21:11:05.372Z,4.33
2018-02-05T21:21:16.264Z,4.40
2018-02-05T21:31:25.526Z,4.13
2018-02-05T21:41:37.581Z,4.33
2018-02-05T21:51:47.599Z,5.10
2018-02-05T22:01:57.630Z,4.70
2018-02-05T22:12:08.494Z,5.00
2018-02-05T22:22:22.334Z,5.40
2018-02-05T22:32:30.523Z,4.40
2018-02-05T22:42:39.502Z,5.00
2018-02-05T22:52:52.117Z,5.03
2018-02-05T23:03:01.470Z,4.83
2018-02-05T23:13:09.927Z,4.97
2018-02-05T23:23:17.870Z,5.30
2018-02-05T23:43:47.149Z,6.13
2018-02-05T23:53:58.395Z,5.67
